Time;durP1;ratioP1;P1;durP2;ratioP2;P2;SDS_P1;SDS_P2;PMS_P1;PMS_P2;Temp;Humidity;BMP_temperature;BMP_pressure;BME280_temperature;BME280_humidity;BME280_pressure;Samples;Min_cycle;Max_cycle;Signal;HPM_P1;HPM_P2
2022/06/21 00:02:23;;;;;;;14.93;3.88;;;19.70;79.10;;;;;;5034298;28;20402;-66
2022/06/21 00:04:48;;;;;;;7.10;3.28;;;19.70;79.00;;;;;;5034269;28;20486;-66
2022/06/21 00:07:23;;;;;;;9.38;3.70;;;19.70;79.10;;;;;;5016144;28;20099;-66
2022/06/21 00:09:49;;;;;;;7.68;3.47;;;19.60;79.20;;;;;;5016347;28;20510;-65
2022/06/21 00:12:15;;;;;;;10.65;3.90;;;19.60;79.30;;;;;;5034210;28;20037;-66
2022/06/21 00:14:41;;;;;;;12.77;4.10;;;19.70;79.20;;;;;;5016367;28;20471;-65
2022/06/21 00:17:13;;;;;;;14.02;4.28;;;19.70;79.20;;;;;;5033815;28;20029;-66
2022/06/21 00:19:41;;;;;;;8.57;3.40;;;19.70;79.30;;;;;;5034113;28;20100;-66
2022/06/21 00:22:16;;;;;;;9.07;3.65;;;19.40;79.90;;;;;;5033429;28;20072;-65
2022/06/21 00:24:43;;;;;;;7.05;3.60;;;19.30;80.30;;;;;;5033817;28;20100;-66
2022/06/21 00:27:15;;;;;;;10.85;5.03;;;19.40;80.10;;;;;;5033712;28;20088;-65
2022/06/21 00:29:41;;;;;;;9.05;4.00;;;19.50;80.00;;;;;;5027927;28;20044;-66
2022/06/21 00:32:15;;;;;;;9.10;4.10;;;19.40;80.10;;;;;;5032723;28;20470;-66
2022/06/21 00:34:42;;;;;;;8.15;3.60;;;19.50;80.00;;;;;;5032413;28;20371;-65
2022/06/21 00:37:16;;;;;;;12.35;4.30;;;19.60;79.70;;;;;;5031665;28;20088;-66
2022/06/21 00:39:42;;;;;;;11.85;4.10;;;19.50;79.50;;;;;;5016801;28;20395;-67
2022/06/21 00:42:30;;;;;;;10.63;4.50;;;19.50;79.80;;;;;;5032457;28;20033;-66
2022/06/21 00:45:14;;;;;;;12.23;4.15;;;19.50;80.10;;;;;;5032570;28;20073;-66
2022/06/21 00:47:45;;;;;;;9.35;3.97;;;19.50;79.80;;;;;;5015541;28;20025;-77
2022/06/21 00:50:25;;;;;;;10.75;4.65;;;19.50;79.70;;;;;;5031998;28;20541;-76
2022/06/21 00:52:54;;;;;;;13.40;4.63;;;19.50;80.10;;;;;;5014454;28;20060;-76
2022/06/21 00:55:52;;;;;;;8.10;4.68;;;19.40;80.10;;;;;;5023891;28;20112;-76
2022/06/21 00:58:20;;;;;;;8.13;3.92;;;19.40;80.20;;;;;;5026908;28;20037;-73
2022/06/21 01:01:03;;;;;;;11.93;4.72;;;19.40;80.30;;;;;;5018193;28;20475;-74
2022/06/21 01:03:41;;;;;;;11.55;4.35;;;19.40;80.20;;;;;;5029650;28;20030;-75
2022/06/21 01:06:12;;;;;;;6.68;3.58;;;19.50;80.20;;;;;;5030873;28;20040;-77
2022/06/21 01:08:42;;;;;;;11.03;4.07;;;19.50;80.10;;;;;;5031612;28;20018;-75
2022/06/21 01:11:13;;;;;;;9.40;4.57;;;19.40;80.00;;;;;;5032277;28;20288;-74
2022/06/21 01:13:43;;;;;;;8.13;4.13;;;19.40;80.20;;;;;;5031458;28;20032;-66
2022/06/21 01:16:09;;;;;;;13.02;5.05;;;19.30;80.30;;;;;;5028932;28;20034;-66
2022/06/21 01:18:36;;;;;;;9.52;5.20;;;19.30;80.50;;;;;;5029562;28;20348;-65
2022/06/21 01:21:02;;;;;;;10.10;5.22;;;19.30;80.60;;;;;;5033201;28;20022;-66
2022/06/21 01:23:56;;;;;;;11.27;4.80;;;19.30;80.60;;;;;;5015406;28;20096;-66
2022/06/21 01:26:42;;;;;;;14.30;4.30;;;19.30;80.50;;;;;;5032703;28;20475;-66
2022/06/21 01:29:14;;;;;;;11.25;4.85;;;19.40;80.20;;;;;;5033186;28;20025;-66
2022/06/21 01:31:40;;;;;;;;;;;19.30;80.20;;;;;;5015668;28;20022;-66
2022/06/21 01:34:12;;;;;;;8.90;4.82;;;19.40;80.40;;;;;;5032629;28;19916;-66
2022/06/21 01:36:39;;;;;;;10.65;5.13;;;19.30;80.50;;;;;;5032946;28;20026;-66
2022/06/21 01:39:20;;;;;;;8.90;4.93;;;19.30;80.60;;;;;;5032792;28;20317;-66
2022/06/21 01:41:48;;;;;;;10.98;5.57;;;19.20;80.80;;;;;;5032662;28;20037;-65
2022/06/21 01:44:21;;;;;;;8.30;4.90;;;19.10;80.90;;;;;;5032803;28;20509;-66
2022/06/21 01:46:47;;;;;;;13.05;5.47;;;19.00;81.10;;;;;;5032873;28;20036;-67
2022/06/21 01:49:17;;;;;;;11.93;5.65;;;19.00;81.30;;;;;;5032790;28;20014;-66
2022/06/21 01:51:48;;;;;;;10.68;5.38;;;19.00;81.40;;;;;;5032754;28;20033;-66
2022/06/21 01:54:17;;;;;;;13.82;5.05;;;19.00;81.20;;;;;;5032673;28;20022;-65
2022/06/21 01:56:43;;;;;;;12.05;5.57;;;19.10;80.90;;;;;;5032920;28;20045;-66
2022/06/21 01:59:14;;;;;;;11.52;5.60;;;19.00;81.20;;;;;;5032775;28;20017;-65
2022/06/21 02:01:54;;;;;;;9.98;5.25;;;19.00;81.30;;;;;;5032451;28;20026;-66
2022/06/21 02:04:24;;;;;;;12.45;5.72;;;19.00;81.20;;;;;;5032756;28;20029;-66
2022/06/21 02:06:51;;;;;;;12.18;5.50;;;19.10;81.20;;;;;;5032695;28;20024;-66
2022/06/21 02:09:26;;;;;;;10.93;5.60;;;19.10;81.20;;;;;;5032518;28;20104;-66
2022/06/21 02:12:06;;;;;;;10.80;5.22;;;19.10;81.30;;;;;;5032984;28;20037;-66
2022/06/21 02:14:37;;;;;;;13.55;5.43;;;19.00;81.00;;;;;;5032479;28;20029;-67
2022/06/21 02:17:21;;;;;;;12.10;5.43;;;19.00;81.10;;;;;;5032253;28;20025;-77
2022/06/21 02:19:57;;;;;;;13.10;6.25;;;18.90;82.20;;;;;;5036126;28;20030;-75
2022/06/21 02:22:26;;;;;;;9.90;5.65;;;18.90;81.70;;;;;;5036281;28;20049;-76
2022/06/21 02:24:53;;;;;;;10.38;5.35;;;18.90;81.40;;;;;;5035979;28;20064;-77
2022/06/21 02:27:23;;;;;;;8.10;5.57;;;19.00;81.30;;;;;;5036506;28;20021;-76
2022/06/21 02:29:54;;;;;;;9.40;5.80;;;19.00;81.20;;;;;;5035926;28;20577;-76
2022/06/21 02:32:35;;;;;;;9.18;6.47;;;18.90;81.10;;;;;;5035943;28;20379;-75
2022/06/21 02:35:35;;;;;;;11.90;6.13;;;18.90;81.10;;;;;;5035972;28;20021;-68
2022/06/21 02:38:05;;;;;;;11.25;5.85;;;18.90;81.40;;;;;;5036047;28;20037;-73
2022/06/21 02:40:35;;;;;;;11.75;5.78;;;18.90;81.50;;;;;;5035657;28;20060;-66
2022/06/21 02:43:09;;;;;;;13.52;5.88;;;18.80;81.60;;;;;;5035725;28;20120;-66
2022/06/21 02:45:54;;;;;;;13.23;6.00;;;18.80;81.90;;;;;;5035533;28;20053;-66
2022/06/21 02:48:28;;;;;;;16.50;5.78;;;18.80;82.10;;;;;;5035999;28;20026;-66
2022/06/21 02:50:58;;;;;;;14.18;6.70;;;18.80;82.20;;;;;;5035555;28;20068;-66
2022/06/21 02:53:30;;;;;;;11.38;5.78;;;18.70;82.40;;;;;;5035799;28;20079;-66
2022/06/21 02:56:05;;;;;;;14.18;6.15;;;18.60;83.00;;;;;;5035455;28;20030;-66
2022/06/21 02:58:37;;;;;;;14.95;6.18;;;18.70;83.00;;;;;;5035553;28;20116;-65
2022/06/21 03:01:11;;;;;;;14.93;6.68;;;18.60;82.80;;;;;;5035225;28;20029;-72
2022/06/21 03:03:36;;;;;;;11.27;5.88;;;18.30;83.50;;;;;;5035358;28;20030;-78
2022/06/21 03:06:07;;;;;;;10.85;6.10;;;18.20;84.10;;;;;;5035528;28;20025;-72
2022/06/21 03:08:34;;;;;;;11.55;5.47;;;18.20;84.60;;;;;;5035375;28;20013;-72
2022/06/21 03:11:00;;;;;;;12.57;5.38;;;18.20;84.50;;;;;;5035125;28;20163;-76
2022/06/21 03:13:31;;;;;;;14.52;5.95;;;18.30;84.40;;;;;;5017405;28;20176;-76
2022/06/21 03:16:01;;;;;;;13.20;5.47;;;18.20;84.40;;;;;;5034721;28;20030;-75
2022/06/21 03:18:32;;;;;;;10.10;5.60;;;18.30;84.50;;;;;;5017393;28;20110;-76
2022/06/21 03:20:59;;;;;;;11.02;5.43;;;18.40;84.10;;;;;;5034975;28;20028;-77
2022/06/21 03:23:26;;;;;;;9.90;5.85;;;18.50;83.70;;;;;;5034968;28;20459;-77
2022/06/21 03:25:56;;;;;;;11.45;5.78;;;18.60;83.40;;;;;;5034936;28;20108;-71
2022/06/21 03:28:31;;;;;;;14.75;6.13;;;18.60;83.30;;;;;;5034672;28;20433;-76
2022/06/21 03:31:04;;;;;;;12.45;5.43;;;18.50;83.10;;;;;;5033916;28;20104;-76
2022/06/21 03:33:33;;;;;;;11.60;5.95;;;18.50;83.30;;;;;;5034803;28;20021;-76
2022/06/21 03:36:01;;;;;;;12.63;5.90;;;18.50;83.10;;;;;;5034559;28;20422;-77
2022/06/21 03:38:27;;;;;;;12.63;5.20;;;18.40;83.50;;;;;;5016999;28;20037;-77
2022/06/21 03:43:47;;;;;;;10.50;4.57;;;18.40;83.50;;;;;;5034504;28;20387;-76
2022/06/21 03:46:45;;;;;;;14.10;5.15;;;18.50;83.20;;;;;;5034499;28;20040;-76
2022/06/21 03:49:31;;;;;;;10.60;4.68;;;18.50;83.00;;;;;;5023778;28;20037;-75
2022/06/21 03:52:00;;;;;;;9.63;5.50;;;18.20;83.50;;;;;;5034384;28;20025;-69
2022/06/21 03:54:33;;;;;;;14.15;5.32;;;18.20;84.00;;;;;;5034494;28;20049;-66
2022/06/21 03:57:18;;;;;;;10.40;5.03;;;18.10;84.30;;;;;;5034240;28;20033;-65
2022/06/21 03:59:54;;;;;;;6.10;4.57;;;18.10;84.40;;;;;;5034474;28;20021;-66
2022/06/21 04:02:27;;;;;;;11.05;5.00;;;18.20;84.20;;;;;;5034096;28;20063;-66
2022/06/21 04:05:11;;;;;;;11.98;4.75;;;18.30;83.80;;;;;;5034368;28;20021;-76
2022/06/21 04:07:44;;;;;;;7.82;4.47;;;18.20;83.90;;;;;;5034365;28;20021;-65
2022/06/21 04:10:28;;;;;;;10.80;5.22;;;18.30;83.90;;;;;;5034280;28;20022;-66
2022/06/21 04:13:18;;;;;;;12.90;4.95;;;18.40;83.50;;;;;;5033500;28;20048;-66
2022/06/21 04:15:59;;;;;;;9.13;4.30;;;18.30;83.70;;;;;;5023402;28;20422;-74
2022/06/21 04:18:43;;;;;;;8.25;4.15;;;18.20;84.00;;;;;;5034106;28;20047;-72
2022/06/21 04:21:25;;;;;;;11.48;4.57;;;18.10;84.20;;;;;;5033917;28;20021;-65
2022/06/21 04:24:08;;;;;;;11.88;4.55;;;18.00;84.50;;;;;;5034048;28;20033;-65
2022/06/21 04:26:47;;;;;;;9.85;4.35;;;18.10;84.60;;;;;;5033570;28;20079;-76
2022/06/21 04:29:17;;;;;;;11.93;4.60;;;18.20;84.30;;;;;;5033769;28;20021;-72
2022/06/21 04:31:49;;;;;;;10.40;4.43;;;18.20;84.40;;;;;;5033781;28;20057;-67
2022/06/21 04:34:28;;;;;;;12.15;4.20;;;18.00;84.50;;;;;;5034051;28;20026;-65
2022/06/21 04:37:00;;;;;;;10.43;5.00;;;18.20;84.60;;;;;;5033466;28;20076;-66
2022/06/21 04:39:54;;;;;;;12.05;5.25;;;18.30;84.30;;;;;;5033738;28;20132;-66
2022/06/21 04:42:44;;;;;;;9.75;4.50;;;18.20;84.30;;;;;;5032822;28;20033;-67
2022/06/21 04:45:17;;;;;;;9.18;3.83;;;18.30;84.20;;;;;;5033784;28;20475;-67
2022/06/21 04:47:59;;;;;;;11.20;4.55;;;18.30;84.00;;;;;;5033466;28;20424;-66
2022/06/21 04:50:34;;;;;;;11.23;4.55;;;18.10;84.70;;;;;;5033607;28;20025;-67
2022/06/21 04:53:11;;;;;;;12.80;5.05;;;18.10;84.50;;;;;;5033337;28;20124;-72
2022/06/21 04:55:57;;;;;;;8.70;4.18;;;18.10;84.70;;;;;;5033115;28;20710;-76
2022/06/21 04:58:24;;;;;;;9.77;4.72;;;18.10;84.70;;;;;;5033290;28;20409;-76
2022/06/21 05:00:50;;;;;;;8.60;4.72;;;18.10;84.90;;;;;;5030451;28;20079;-76
2022/06/21 05:03:38;;;;;;;9.20;4.72;;;18.20;84.70;;;;;;5028766;28;20034;-77
2022/06/21 05:06:03;;;;;;;9.80;4.68;;;18.10;85.00;;;;;;5030799;28;20104;-76
2022/06/21 05:08:31;;;;;;;12.25;5.20;;;18.10;85.00;;;;;;5027168;28;20100;-74
2022/06/21 05:11:00;;;;;;;9.82;4.50;;;18.10;85.00;;;;;;5031130;28;20443;-77
2022/06/21 05:13:36;;;;;;;8.18;4.57;;;18.30;84.60;;;;;;5014231;28;20037;-75
2022/06/21 05:16:09;;;;;;;14.40;5.03;;;18.10;84.50;;;;;;5030265;28;20029;-68
2022/06/21 05:18:43;;;;;;;9.27;4.38;;;17.90;85.50;;;;;;5032195;28;20025;-76
2022/06/21 05:21:14;;;;;;;9.70;4.95;;;17.90;86.20;;;;;;5024083;28;20034;-77
2022/06/21 05:23:40;;;;;;;9.30;4.95;;;18.00;85.80;;;;;;5027826;28;20030;-65
2022/06/21 05:26:33;;;;;;;11.45;5.07;;;17.90;85.60;;;;;;5027734;28;20052;-77
2022/06/21 05:29:24;;;;;;;12.38;5.50;;;18.10;85.20;;;;;;5026638;28;20025;-78
2022/06/21 05:31:55;;;;;;;13.00;4.50;;;17.90;85.50;;;;;;5026579;28;20474;-74
2022/06/21 05:34:26;;;;;;;11.32;5.20;;;17.90;87.20;;;;;;5027898;28;20018;-76
2022/06/21 05:36:57;;;;;;;7.50;4.53;;;18.20;86.70;;;;;;5010869;28;20398;-72
2022/06/21 05:39:30;;;;;;;12.60;4.57;;;18.40;86.40;;;;;;5024792;28;20036;-73
2022/06/21 05:41:59;;;;;;;13.45;4.65;;;18.50;85.70;;;;;;5030752;28;20294;-74
2022/06/21 05:44:49;;;;;;;9.35;3.90;;;18.60;85.30;;;;;;5028232;28;20120;-76
2022/06/21 05:47:23;;;;;;;9.63;4.25;;;18.70;84.70;;;;;;5030415;28;20506;-67
2022/06/21 05:49:50;;;;;;;9.13;4.32;;;18.90;84.70;;;;;;5022771;28;20021;-70
2022/06/21 05:52:24;;;;;;;10.52;4.10;;;19.00;83.80;;;;;;5023330;28;20037;-71
2022/06/21 05:54:56;;;;;;;11.40;4.57;;;19.20;82.00;;;;;;5029227;28;20052;-70
2022/06/21 05:57:24;;;;;;;9.00;3.28;;;19.30;82.10;;;;;;5032716;28;20041;-67
2022/06/21 05:59:50;;;;;;;10.95;4.30;;;19.40;81.90;;;;;;5030355;28;20060;-67
2022/06/21 06:02:32;;;;;;;10.15;3.97;;;19.50;80.70;;;;;;5030028;28;20754;-66
2022/06/21 06:05:05;;;;;;;10.10;3.92;;;19.60;79.90;;;;;;5032361;28;20028;-77
2022/06/21 06:07:36;;;;;;;7.43;3.53;;;19.70;79.70;;;;;;5031567;28;20117;-83
2022/06/21 06:10:03;;;;;;;12.32;3.83;;;19.70;80.20;;;;;;5030918;28;20029;-70
2022/06/21 06:12:44;;;;;;;10.95;3.90;;;19.70;78.90;;;;;;5031538;28;20025;-66
2022/06/21 06:15:16;;;;;;;8.43;3.83;;;19.90;78.70;;;;;;5014208;28;20430;-67
2022/06/21 06:18:04;;;;;;;9.70;4.40;;;19.90;79.10;;;;;;5036000;28;20507;-70
2022/06/21 06:20:32;;;;;;;8.80;3.60;;;20.00;78.60;;;;;;5035396;28;20111;-67
2022/06/21 06:23:20;;;;;;;7.00;2.78;;;20.10;78.20;;;;;;5035516;28;20025;-75
2022/06/21 06:25:52;;;;;;;12.82;3.63;;;20.10;78.90;;;;;;5028372;28;20029;-68
2022/06/21 06:28:20;;;;;;;7.55;3.50;;;20.20;78.30;;;;;;5030871;28;20036;-79
2022/06/21 06:30:51;;;;;;;10.05;3.75;;;20.20;77.40;;;;;;5015449;28;20546;-77
2022/06/21 06:33:34;;;;;;;7.95;3.13;;;20.30;77.20;;;;;;5035552;28;20022;-68
2022/06/21 06:36:06;;;;;;;8.63;2.97;;;20.40;76.60;;;;;;5032791;28;20179;-78
2022/06/21 06:38:32;;;;;;;6.68;3.47;;;20.40;77.20;;;;;;5031322;28;20356;-74
2022/06/21 06:41:16;;;;;;;8.00;2.90;;;20.40;78.00;;;;;;5032568;28;20501;-79
2022/06/21 06:43:53;;;;;;;9.23;3.95;;;20.50;78.10;;;;;;5023314;28;20044;-73
2022/06/21 06:46:47;;;;;;;9.55;3.83;;;20.50;77.50;;;;;;5031405;28;20036;-67
2022/06/21 06:49:18;;;;;;;6.70;3.08;;;20.60;76.30;;;;;;5026861;28;20066;-66
2022/06/21 06:51:52;;;;;;;9.90;3.25;;;20.70;75.60;;;;;;5026997;28;20041;-69
2022/06/21 06:54:23;;;;;;;9.55;3.03;;;20.70;76.20;;;;;;5030276;28;20034;-67
2022/06/21 06:57:19;;;;;;;7.80;3.30;;;20.70;77.40;;;;;;5020571;28;20025;-76
2022/06/21 06:59:44;;;;;;;8.00;3.35;;;20.80;76.00;;;;;;4989509;28;20042;-72
2022/06/21 07:02:38;;;;;;;8.43;2.58;;;20.90;74.60;;;;;;5013708;28;20030;-73
2022/06/21 07:05:17;;;;;;;10.30;3.30;;;20.90;76.20;;;;;;5016782;28;20048;-75
2022/06/21 07:07:55;;;;;;;8.13;3.22;;;21.00;73.70;;;;;;5013110;28;20129;-71
2022/06/21 07:10:24;;;;;;;7.72;3.30;;;21.10;73.70;;;;;;5030579;28;20489;-77
2022/06/21 07:12:52;;;;;;;7.75;3.45;;;21.20;73.20;;;;;;5016095;28;20121;-78
2022/06/21 07:15:24;;;;;;;11.70;3.80;;;21.30;72.30;;;;;;5012633;28;20117;-78
2022/06/21 07:17:54;;;;;;;7.63;3.83;;;21.30;72.30;;;;;;5015940;28;20503;-78
2022/06/21 07:20:39;;;;;;;9.13;3.50;;;21.40;73.10;;;;;;5033137;28;20113;-78
2022/06/21 07:23:15;;;;;;;7.80;3.13;;;21.40;71.20;;;;;;5030732;28;20471;-77
2022/06/21 07:25:47;;;;;;;7.25;3.20;;;21.50;72.20;;;;;;5034140;28;20046;-78
2022/06/21 07:28:28;;;;;;;7.15;3.30;;;21.40;72.50;;;;;;5034216;28;20029;-78
2022/06/21 07:30:58;;;;;;;10.25;3.60;;;21.50;72.80;;;;;;5034216;28;20044;-78
2022/06/21 07:33:32;;;;;;;6.63;3.03;;;21.60;71.60;;;;;;5034179;28;20029;-79
2022/06/21 07:36:03;;;;;;;8.15;3.95;;;21.70;70.80;;;;;;5028359;28;20367;-78
2022/06/21 07:38:40;;;;;;;7.65;3.60;;;21.70;70.10;;;;;;5034624;28;20367;-78
2022/06/21 07:41:18;;;;;;;10.35;3.78;;;21.70;70.80;;;;;;5021669;28;20033;-78
2022/06/21 07:43:48;;;;;;;11.02;4.18;;;21.70;70.40;;;;;;5033890;28;20064;-78
2022/06/21 07:46:21;;;;;;;8.18;3.72;;;21.70;70.80;;;;;;5034509;28;20045;-78
2022/06/21 07:49:19;;;;;;;9.93;4.18;;;21.70;70.00;;;;;;5016389;28;20033;-77
2022/06/21 07:51:51;;;;;;;10.00;3.78;;;21.60;70.60;;;;;;5028528;28;20109;-78
2022/06/21 07:54:30;;;;;;;7.22;4.47;;;21.60;70.20;;;;;;5027312;28;20116;-79
2022/06/21 07:57:05;;;;;;;6.90;3.60;;;21.60;70.40;;;;;;5033880;28;20076;-78
2022/06/21 07:59:43;;;;;;;8.77;4.10;;;21.70;71.10;;;;;;5033772;28;20382;-75
2022/06/21 08:08:27;;;;;;;7.77;3.67;;;21.80;69.70;;;;;;5029528;28;20395;-77
2022/06/21 08:10:58;;;;;;;8.25;3.53;;;21.80;70.80;;;;;;5022335;28;20022;-78
2022/06/21 08:13:24;;;;;;;7.03;2.90;;;21.90;70.80;;;;;;5021873;28;20051;-72
2022/06/21 08:16:08;;;;;;;9.07;3.92;;;21.90;71.30;;;;;;5030993;28;20025;-68
2022/06/21 08:18:46;;;;;;;7.70;3.97;;;21.90;70.70;;;;;;5032754;28;20045;-72
2022/06/21 08:21:23;;;;;;;7.43;3.20;;;21.90;69.60;;;;;;5025996;28;20530;-71
2022/06/21 08:24:01;;;;;;;9.88;4.55;;;22.00;70.60;;;;;;5033556;28;20115;-70
2022/06/21 08:26:52;;;;;;;7.00;4.00;;;21.90;68.70;;;;;;5020075;28;20022;-68
2022/06/21 08:29:27;;;;;;;11.13;4.55;;;22.00;69.30;;;;;;5017508;28;20037;-69
2022/06/21 08:32:02;;;;;;;7.25;3.75;;;22.00;69.40;;;;;;5033050;28;20026;-68
2022/06/21 08:34:42;;;;;;;8.15;4.07;;;22.00;70.00;;;;;;5032948;28;20492;-77
2022/06/21 08:37:24;;;;;;;7.18;4.20;;;22.10;69.60;;;;;;5033438;28;20036;-74
2022/06/21 08:40:01;;;;;;;8.60;4.10;;;22.10;68.90;;;;;;5015494;28;20116;-71
2022/06/21 08:42:50;;;;;;;8.23;4.13;;;22.10;68.60;;;;;;5032849;28;20029;-71
2022/06/21 08:45:50;;;;;;;10.02;3.70;;;22.10;68.50;;;;;;5030818;28;20026;-70
2022/06/21 08:48:48;;;;;;;7.15;4.10;;;22.10;69.30;;;;;;5031504;28;20029;-69
2022/06/21 08:51:44;;;;;;;6.47;3.50;;;22.10;67.80;;;;;;5015221;28;20017;-67
2022/06/21 08:54:33;;;;;;;5.03;2.17;;;22.10;68.80;;;;;;5028947;28;20018;-80
2022/06/21 08:57:11;;;;;;;9.60;3.75;;;22.10;69.70;;;;;;5027485;28;20037;-79
2022/06/21 08:59:58;;;;;;;8.82;3.97;;;22.10;67.20;;;;;;5029428;28;20021;-74
2022/06/21 09:03:02;;;;;;;9.45;3.53;;;22.10;67.20;;;;;;5028330;28;20117;-77
2022/06/21 09:05:37;;;;;;;7.30;3.42;;;22.20;67.90;;;;;;5030477;28;20114;-72
2022/06/21 09:08:28;;;;;;;6.72;3.03;;;22.20;67.50;;;;;;5030597;28;20096;-75
2022/06/21 09:11:11;;;;;;;7.30;3.83;;;22.20;67.80;;;;;;4972637;28;20553;-77
2022/06/21 09:14:01;;;;;;;10.30;4.20;;;22.20;66.90;;;;;;5030049;28;20662;-79
2022/06/21 09:17:08;;;;;;;9.68;3.90;;;22.20;66.90;;;;;;5024074;28;20116;-78
2022/06/21 09:19:50;;;;;;;8.25;3.83;;;22.20;66.90;;;;;;5021933;28;20074;-81
2022/06/21 09:22:20;;;;;;;;;;;22.20;66.60;;;;;;5022190;28;20117;-82
2022/06/21 09:25:01;;;;;;;7.00;4.25;;;22.20;65.90;;;;;;5030745;28;19909;-78
2022/06/21 09:27:34;;;;;;;8.93;3.70;;;22.20;66.10;;;;;;5030234;28;20128;-80
2022/06/21 09:30:11;;;;;;;8.82;3.83;;;22.20;66.10;;;;;;5033481;28;20017;-78
2022/06/21 09:32:52;;;;;;;10.63;4.45;;;22.20;66.20;;;;;;5034470;28;20071;-79
2022/06/21 09:35:41;;;;;;;10.43;5.10;;;22.20;66.20;;;;;;5034274;28;20026;-77
2022/06/21 09:38:41;;;;;;;8.35;4.70;;;22.20;66.10;;;;;;5028444;28;20033;-78
2022/06/21 09:41:31;;;;;;;7.63;4.28;;;22.20;66.10;;;;;;5035071;28;20041;-81
2022/06/21 09:44:11;;;;;;;7.18;4.00;;;22.10;66.20;;;;;;5032554;28;20044;-78
2022/06/21 09:46:55;;;;;;;7.90;3.70;;;22.20;66.40;;;;;;5032679;28;20470;-78
2022/06/21 09:49:40;;;;;;;7.35;2.90;;;22.20;66.20;;;;;;5034740;28;20108;-80
2022/06/21 09:52:30;;;;;;;7.03;2.90;;;22.30;65.10;;;;;;5035849;28;20112;-81
2022/06/21 09:55:11;;;;;;;8.65;2.88;;;22.20;64.40;;;;;;5044934;28;20223;-80
2022/06/21 09:57:56;;;;;;;7.05;3.20;;;22.30;64.10;;;;;;5036969;28;20029;-77
2022/06/21 10:00:44;;;;;;;8.95;3.15;;;22.20;64.00;;;;;;5035463;28;20021;-78
2022/06/21 10:03:40;;;;;;;6.82;3.17;;;22.20;63.50;;;;;;5035934;28;20025;-85
2022/06/21 10:06:24;;;;;;;4.57;2.53;;;22.20;63.10;;;;;;5016803;28;20030;-86
2022/06/21 10:09:02;;;;;;;6.97;2.58;;;22.30;62.50;;;;;;5035123;28;20521;-83
2022/06/21 10:11:37;;;;;;;5.65;2.50;;;22.20;64.80;;;;;;5035995;28;20040;-78
2022/06/21 10:14:24;;;;;;;5.90;3.15;;;22.20;62.70;;;;;;5036311;28;20487;-73
2022/06/21 10:17:33;;;;;;;5.53;2.67;;;22.20;63.10;;;;;;5034154;28;20025;-72
2022/06/21 10:20:07;;;;;;;5.15;2.63;;;22.20;63.20;;;;;;5026996;28;20033;-74
2022/06/21 10:22:55;;;;;;;8.13;2.92;;;22.30;63.50;;;;;;5032254;28;20119;-77
2022/06/21 10:25:37;;;;;;;8.35;2.78;;;22.30;63.20;;;;;;5032323;28;20025;-80
2022/06/21 10:28:23;;;;;;;8.90;2.80;;;22.30;63.30;;;;;;5031921;28;20018;-77
2022/06/21 10:31:12;;;;;;;8.00;3.20;;;22.20;63.30;;;;;;5032457;28;20044;-78
2022/06/21 10:34:20;;;;;;;7.57;3.13;;;22.30;63.50;;;;;;5036374;28;20113;-76
2022/06/21 10:37:20;;;;;;;6.63;2.50;;;22.30;63.40;;;;;;5030349;28;20465;-74
2022/06/21 10:40:07;;;;;;;6.50;2.72;;;22.30;63.60;;;;;;5026106;28;20441;-75
2022/06/21 10:42:46;;;;;;;7.32;2.80;;;22.40;63.30;;;;;;5025626;28;20824;-72
2022/06/21 10:45:35;;;;;;;4.90;2.53;;;22.30;62.10;;;;;;5032911;28;20061;-78
2022/06/21 10:48:32;;;;;;;7.10;2.88;;;22.30;61.90;;;;;;5029228;28;20018;-75
2022/06/21 10:51:21;;;;;;;7.95;2.85;;;22.30;62.50;;;;;;5027172;28;20024;-75
2022/06/21 10:54:12;;;;;;;7.50;2.53;;;22.40;62.60;;;;;;5022335;28;20504;-71
2022/06/21 10:57:14;;;;;;;6.15;2.38;;;22.40;62.70;;;;;;5030497;28;20025;-72
2022/06/21 11:02:52;;;;;;;7.22;2.80;;;22.50;62.30;;;;;;5032343;28;20044;-79
2022/06/21 11:05:34;;;;;;;8.65;3.35;;;22.50;62.90;;;;;;5024954;28;20100;-77
2022/06/21 11:08:05;;;;;;;10.50;3.00;;;22.50;62.90;;;;;;5022286;28;20471;-79
2022/06/21 11:10:36;;;;;;;7.10;2.90;;;22.40;62.60;;;;;;5028788;28;20105;-78
2022/06/21 11:13:06;;;;;;;7.40;2.95;;;22.40;63.10;;;;;;5012570;28;20393;-81
2022/06/21 11:15:50;;;;;;;8.57;2.40;;;22.50;63.10;;;;;;5032232;28;20041;-82
2022/06/21 11:18:39;;;;;;;8.05;2.80;;;22.40;62.60;;;;;;5027568;28;20025;-75
2022/06/21 11:21:25;;;;;;;6.22;2.58;;;22.40;63.00;;;;;;5026774;28;20048;-84
2022/06/21 11:24:14;;;;;;;8.20;2.90;;;22.40;63.00;;;;;;5031177;28;20497;-81
2022/06/21 11:26:42;;;;;;;8.85;3.08;;;22.30;63.20;;;;;;4976783;28;20450;-76
2022/06/21 11:29:08;;;;;;;8.07;2.80;;;22.30;63.40;;;;;;5031100;28;20308;-81
2022/06/21 11:32:03;;;;;;;6.95;3.22;;;22.30;63.30;;;;;;5021806;28;20108;-84
2022/06/21 11:34:40;;;;;;;6.53;2.58;;;22.30;63.80;;;;;;5022556;28;20402;-73
2022/06/21 11:37:45;;;;;;;7.22;3.17;;;22.40;64.00;;;;;;5023765;28;20037;-82
2022/06/21 11:40:22;;;;;;;4.43;2.63;;;22.40;63.90;;;;;;5029782;28;20041;-85
2022/06/21 11:42:55;;;;;;;4.60;2.40;;;22.40;63.50;;;;;;5028872;28;20571;-79
2022/06/21 11:45:46;;;;;;;5.60;2.95;;;22.40;63.60;;;;;;5031229;28;20018;-72
2022/06/21 11:48:11;;;;;;;5.13;2.88;;;22.40;63.20;;;;;;5030137;28;20022;-82
2022/06/21 11:51:04;;;;;;;11.50;2.80;;;22.30;63.30;;;;;;5009669;28;20040;-72
2022/06/21 11:53:51;;;;;;;5.93;2.80;;;22.40;63.90;;;;;;5023554;28;20036;-78
2022/06/21 11:56:58;;;;;;;7.82;2.83;;;22.40;63.30;;;;;;5023340;28;20064;-81
2022/06/21 11:59:40;;;;;;;6.38;2.58;;;22.30;62.50;;;;;;4980621;28;20045;-78
2022/06/21 12:02:14;;;;;;;10.73;2.77;;;22.30;62.40;;;;;;5009075;28;20503;-84
2022/06/21 12:04:45;;;;;;;8.57;2.70;;;22.40;62.50;;;;;;5028416;28;20125;-80
2022/06/21 12:07:33;;;;;;;5.90;2.85;;;22.40;62.70;;;;;;5030739;28;20108;-84
2022/06/21 12:10:19;;;;;;;7.60;2.38;;;22.40;62.10;;;;;;5029969;28;20029;-74
2022/06/21 12:13:06;;;;;;;6.10;2.63;;;22.40;62.10;;;;;;5025309;28;20120;-66
2022/06/21 12:16:00;;;;;;;7.90;2.50;;;22.40;62.60;;;;;;5029539;28;20036;-66
2022/06/21 12:18:35;;;;;;;7.78;2.95;;;22.40;62.10;;;;;;5016740;28;20513;-68
2022/06/21 12:21:09;;;;;;;6.43;2.80;;;22.40;62.10;;;;;;5029580;28;20076;-72
2022/06/21 12:23:44;;;;;;;8.93;3.08;;;22.40;62.80;;;;;;5030260;28;20025;-80
2022/06/21 12:26:22;;;;;;;6.88;2.83;;;22.30;63.10;;;;;;5031970;28;20021;-66
2022/06/21 12:28:49;;;;;;;7.72;3.20;;;22.30;62.40;;;;;;5029046;28;20057;-83
2022/06/21 12:31:21;;;;;;;7.45;3.28;;;22.30;62.50;;;;;;5028251;28;20076;-72
2022/06/21 12:33:52;;;;;;;8.25;3.45;;;22.30;62.80;;;;;;5026133;28;20394;-69
2022/06/21 12:36:36;;;;;;;7.30;3.00;;;22.20;63.20;;;;;;5027847;28;20232;-67
2022/06/21 12:39:15;;;;;;;8.32;3.50;;;22.30;63.40;;;;;;5016568;28;20145;-66
2022/06/21 12:41:55;;;;;;;6.22;2.72;;;22.30;63.30;;;;;;5024022;28;20029;-67
2022/06/21 12:44:45;;;;;;;9.30;2.97;;;22.40;63.50;;;;;;5021321;28;20026;-71
2022/06/21 12:47:32;;;;;;;8.32;2.85;;;22.40;63.50;;;;;;5017325;28;20457;-71
2022/06/21 12:50:42;;;;;;;8.38;3.13;;;22.50;63.10;;;;;;5024236;28;20021;-67
2022/06/21 12:53:19;;;;;;;9.10;3.38;;;22.50;63.20;;;;;;5012324;28;20014;-72
2022/06/21 12:55:58;;;;;;;7.10;3.50;;;22.50;62.90;;;;;;5018641;28;20033;-68
2022/06/21 12:58:26;;;;;;;7.22;3.03;;;22.40;63.90;;;;;;5030278;28;20045;-70
2022/06/21 13:00:55;;;;;;;8.95;3.33;;;22.40;63.50;;;;;;5028306;28;20096;-69
2022/06/21 13:03:26;;;;;;;8.70;3.47;;;22.50;64.40;;;;;;5029766;28;20026;-76
2022/06/21 13:06:01;;;;;;;11.27;4.27;;;22.50;63.60;;;;;;5028146;28;20022;-76
2022/06/21 13:08:35;;;;;;;6.18;3.65;;;22.50;63.80;;;;;;5027106;28;20374;-79
2022/06/21 13:11:19;;;;;;;8.77;3.33;;;22.50;63.70;;;;;;5018150;28;20056;-72
2022/06/21 13:14:00;;;;;;;5.35;3.08;;;22.50;63.80;;;;;;5005372;28;20391;-78
2022/06/21 13:16:54;;;;;;;9.02;3.20;;;22.50;63.90;;;;;;5046198;28;20027;-78
2022/06/21 13:19:33;;;;;;;4.45;2.53;;;22.60;64.00;;;;;;5043073;28;20033;-77
2022/06/21 13:22:53;;;;;;;4.28;3.15;;;22.60;63.90;;;;;;5022067;28;20100;-78
2022/06/21 13:25:50;;;;;;;8.68;3.45;;;22.60;63.10;;;;;;4917810;29;20044;-76
2022/06/21 13:28:41;;;;;;;8.55;3.13;;;22.60;62.60;;;;;;4973657;28;20045;-73
2022/06/21 13:31:20;;;;;;;6.22;3.67;;;22.60;62.50;;;;;;5025484;28;20156;-78
2022/06/21 13:34:06;;;;;;;10.35;3.40;;;22.60;62.70;;;;;;5030908;28;20110;-78
2022/06/21 13:36:48;;;;;;;5.35;3.10;;;22.70;62.30;;;;;;5031504;28;20382;-76
2022/06/21 13:39:31;;;;;;;6.35;2.83;;;22.60;62.00;;;;;;5028911;28;20497;-72
2022/06/21 13:45:10;;;;;;;7.45;2.80;;;22.60;62.10;;;;;;5028408;28;20099;-77
2022/06/21 13:48:28;;;;;;;6.18;3.53;;;22.60;62.10;;;;;;5028423;28;20410;-75
2022/06/21 13:51:04;;;;;;;8.30;2.97;;;22.70;62.00;;;;;;4988438;28;20391;-78
2022/06/21 13:54:00;;;;;;;12.52;3.63;;;22.70;61.80;;;;;;5028425;28;20369;-80
2022/06/21 13:56:49;;;;;;;5.47;3.53;;;22.70;62.10;;;;;;5028974;28;20045;-76